Time;durP1;ratioP1;P1;durP2;ratioP2;P2;SDS_P1;SDS_P2;PMS_P1;PMS_P2;Temp;Humidity;BMP_temperature;BMP_pressure;BME280_temperature;BME280_humidity;BME280_pressure;Samples;Min_cycle;Max_cycle;Signal;HPM_P1;HPM_P2
2023/04/18 00:01:41;;;;;;;20.40;12.60;;;10.50;99.90;;;;;;4979532;28;20184;-83
2023/04/18 00:04:07;;;;;;;16.93;12.37;;;10.50;99.90;;;;;;4991285;28;20199;-83
2023/04/18 00:06:36;;;;;;;15.40;11.10;;;10.40;99.90;;;;;;4986332;28;20501;-83
2023/04/18 00:09:02;;;;;;;17.23;11.97;;;10.40;99.90;;;;;;4976649;28;20435;-84
2023/04/18 00:11:28;;;;;;;15.97;11.33;;;10.30;99.90;;;;;;4968867;28;20430;-84
2023/04/18 00:13:56;;;;;;;14.07;10.20;;;10.30;99.90;;;;;;4973901;28;20509;-82
2023/04/18 00:16:22;;;;;;;14.37;10.90;;;10.20;99.90;;;;;;4986859;28;20927;-83
2023/04/18 00:18:48;;;;;;;15.00;10.73;;;10.20;99.90;;;;;;4981061;28;20427;-83
2023/04/18 00:21:13;;;;;;;13.00;9.27;;;10.10;99.90;;;;;;4980242;28;20512;-82
2023/04/18 00:23:39;;;;;;;13.50;10.57;;;10.10;99.90;;;;;;4981045;28;20208;-82
2023/04/18 00:26:04;;;;;;;14.00;10.33;;;10.10;99.90;;;;;;4983233;28;20751;-82
2023/04/18 00:28:30;;;;;;;13.70;10.53;;;10.10;99.90;;;;;;4976309;28;20275;-83
2023/04/18 00:30:55;;;;;;;13.13;10.37;;;10.10;99.90;;;;;;4967764;28;20203;-83
2023/04/18 00:33:21;;;;;;;12.43;10.33;;;10.20;99.90;;;;;;4977460;28;20215;-83
2023/04/18 00:35:46;;;;;;;12.57;9.10;;;10.20;99.90;;;;;;4981409;28;20189;-82
2023/04/18 00:38:12;;;;;;;16.83;10.20;;;10.20;99.90;;;;;;4983639;28;20188;-84
2023/04/18 00:40:38;;;;;;;16.23;10.90;;;10.20;99.90;;;;;;4987555;28;20204;-84
2023/04/18 00:43:06;;;;;;;14.17;10.23;;;10.20;99.90;;;;;;4982150;28;20711;-84
2023/04/18 00:45:32;;;;;;;18.00;12.50;;;10.20;99.90;;;;;;4971622;28;20507;-82
2023/04/18 00:47:57;;;;;;;14.87;10.00;;;10.20;99.90;;;;;;4977906;28;20786;-83
2023/04/18 00:50:23;;;;;;;15.50;8.93;;;10.10;99.90;;;;;;4970301;28;20200;-84
2023/04/18 00:52:49;;;;;;;15.37;11.40;;;10.10;99.90;;;;;;4979258;28;20284;-83
2023/04/18 00:55:15;;;;;;;10.37;8.53;;;10.10;99.90;;;;;;4989463;28;20218;-82
2023/04/18 00:57:41;;;;;;;14.10;11.40;;;10.00;99.90;;;;;;4987150;28;20442;-82
2023/04/18 01:00:11;;;;;;;12.27;9.30;;;10.00;99.90;;;;;;4994578;28;20196;-82
2023/04/18 01:02:38;;;;;;;12.30;9.57;;;9.90;99.90;;;;;;4976239;28;20207;-84
2023/04/18 01:05:04;;;;;;;13.77;9.75;;;9.90;99.90;;;;;;4989303;28;20966;-81
2023/04/18 01:07:32;;;;;;;13.40;9.60;;;9.90;99.90;;;;;;4977531;28;20184;-84
2023/04/18 01:09:58;;;;;;;13.57;8.73;;;9.80;99.90;;;;;;4992986;28;20440;-80
2023/04/18 01:12:23;;;;;;;13.57;9.40;;;9.80;99.90;;;;;;4982040;28;21488;-81
2023/04/18 01:14:49;;;;;;;14.57;10.40;;;9.70;99.90;;;;;;4985206;28;20438;-81
2023/04/18 01:17:15;;;;;;;13.13;9.60;;;9.70;99.90;;;;;;4983951;28;20243;-81
2023/04/18 01:19:40;;;;;;;11.70;8.90;;;9.70;99.90;;;;;;4980182;28;20183;-85
2023/04/18 01:22:07;;;;;;;12.93;9.90;;;9.60;99.90;;;;;;4992865;28;20215;-82
2023/04/18 01:24:32;;;;;;;14.57;9.77;;;9.60;99.90;;;;;;4974194;28;20203;-82
2023/04/18 01:26:58;;;;;;;12.23;9.43;;;9.60;99.90;;;;;;4970159;28;20433;-82
2023/04/18 01:29:24;;;;;;;10.57;9.00;;;9.50;99.90;;;;;;4983449;28;20200;-82
2023/04/18 01:31:50;;;;;;;13.47;9.17;;;9.40;99.90;;;;;;4983199;28;20695;-82
2023/04/18 01:34:19;;;;;;;12.70;9.60;;;9.40;99.90;;;;;;4962671;28;20440;-82
2023/04/18 01:36:45;;;;;;;17.97;10.07;;;9.40;99.90;;;;;;4977284;28;20223;-82
2023/04/18 01:39:12;;;;;;;16.20;11.15;;;9.30;99.90;;;;;;4974520;28;20430;-82
2023/04/18 01:41:37;;;;;;;12.35;10.05;;;9.20;99.90;;;;;;4983947;28;20179;-81
2023/04/18 01:44:03;;;;;;;23.97;11.47;;;9.20;99.90;;;;;;4985988;28;20203;-81
2023/04/18 01:46:29;;;;;;;11.30;9.70;;;9.10;99.90;;;;;;4965865;28;20184;-81
2023/04/18 01:48:55;;;;;;;14.23;10.50;;;9.10;99.90;;;;;;4980819;28;20510;-79
2023/04/18 01:51:21;;;;;;;13.93;9.77;;;9.00;99.90;;;;;;4980677;28;20428;-82
2023/04/18 01:53:47;;;;;;;12.43;9.70;;;9.00;99.90;;;;;;4974001;28;20296;-83
2023/04/18 01:56:12;;;;;;;13.50;10.10;;;8.90;99.90;;;;;;4980666;28;20460;-83
2023/04/18 01:58:38;;;;;;;19.83;11.27;;;8.90;99.90;;;;;;4981705;28;20665;-82
2023/04/18 02:01:04;;;;;;;14.20;10.43;;;8.90;99.90;;;;;;4984924;28;20180;-81
2023/04/18 02:03:29;;;;;;;13.27;10.23;;;8.90;99.90;;;;;;4979728;28;20195;-82
2023/04/18 02:05:55;;;;;;;15.23;11.03;;;8.80;99.90;;;;;;4990017;28;20176;-82
2023/04/18 02:08:20;;;;;;;14.30;11.50;;;8.80;99.90;;;;;;4980860;28;20183;-81
2023/04/18 02:10:46;;;;;;;13.10;10.50;;;8.80;99.90;;;;;;4970038;28;20189;-80
2023/04/18 02:13:13;;;;;;;15.73;11.40;;;8.70;99.90;;;;;;4974642;28;20212;-81
2023/04/18 02:15:38;;;;;;;21.90;10.68;;;8.70;99.90;;;;;;4981041;28;20167;-81
2023/04/18 02:18:05;;;;;;;15.80;11.40;;;8.70;99.90;;;;;;4986439;28;20539;-80
2023/04/18 02:20:32;;;;;;;18.33;11.95;;;8.60;99.90;;;;;;4980232;28;20551;-83
2023/04/18 02:23:01;;;;;;;14.85;10.98;;;8.60;99.90;;;;;;4970025;28;20279;-82
2023/04/18 02:25:27;;;;;;;16.17;10.50;;;8.60;99.90;;;;;;4977947;28;20713;-82
2023/04/18 02:27:54;;;;;;;13.88;10.85;;;8.50;99.90;;;;;;4976527;28;20225;-82
2023/04/18 02:30:19;;;;;;;13.48;10.75;;;8.50;99.90;;;;;;4976327;28;20281;-82
2023/04/18 02:32:45;;;;;;;18.67;12.10;;;8.40;99.90;;;;;;4977356;28;20670;-83
2023/04/18 02:35:12;;;;;;;17.87;11.27;;;8.40;1.00;;;;;;4982777;28;20177;-82
2023/04/18 02:37:37;;;;;;;18.77;12.05;;;8.40;1.00;;;;;;4974168;28;20255;-82
2023/04/18 02:40:03;;;;;;;16.90;11.93;;;8.40;1.00;;;;;;4980697;28;20656;-83
2023/04/18 02:42:30;;;;;;;13.23;11.93;;;8.40;1.00;;;;;;4974348;28;20339;-83
2023/04/18 02:44:56;;;;;;;16.20;11.68;;;8.40;1.00;;;;;;4986855;28;20440;-83
2023/04/18 02:47:21;;;;;;;15.20;11.90;;;8.40;1.00;;;;;;4983514;28;20195;-83
2023/04/18 02:49:47;;;;;;;13.30;11.10;;;8.30;1.00;;;;;;4989798;28;20438;-82
2023/04/18 02:52:13;;;;;;;15.50;11.60;;;8.30;1.00;;;;;;4981705;28;20211;-82
2023/04/18 02:54:38;;;;;;;15.57;12.03;;;8.30;1.00;;;;;;4987740;28;20178;-84
2023/04/18 02:57:04;;;;;;;18.83;12.10;;;8.20;1.00;;;;;;4991166;28;21513;-82
2023/04/18 02:59:30;;;;;;;17.10;11.37;;;8.20;1.00;;;;;;4978607;28;20179;-83
2023/04/18 03:01:55;;;;;;;18.20;11.93;;;8.20;1.00;;;;;;4978061;28;20203;-83
2023/04/18 03:04:21;;;;;;;13.90;11.17;;;8.10;1.00;;;;;;4978241;28;20188;-83
2023/04/18 03:06:49;;;;;;;15.20;11.07;;;8.10;1.00;;;;;;4984377;28;20250;-82
2023/04/18 03:09:15;;;;;;;15.55;11.63;;;8.00;1.00;;;;;;4986443;28;20933;-81
2023/04/18 03:11:41;;;;;;;15.25;11.40;;;8.00;1.00;;;;;;4989329;28;20647;-82
2023/04/18 03:14:06;;;;;;;14.37;11.90;;;8.00;1.00;;;;;;4993155;28;20214;-84
2023/04/18 03:16:32;;;;;;;14.73;10.67;;;7.90;1.00;;;;;;4984373;28;20183;-81
2023/04/18 03:18:58;;;;;;;16.30;11.70;;;7.90;25.20;;;;;;4986288;28;20188;-81
2023/04/18 03:21:23;;;;;;;19.70;11.57;;;7.90;99.90;;;;;;4978371;28;20443;-82
2023/04/18 03:23:49;;;;;;;14.73;11.87;;;7.80;99.90;;;;;;4982322;28;20215;-82
2023/04/18 03:26:14;;;;;;;16.03;12.30;;;7.80;99.90;;;;;;4989799;28;20665;-80
2023/04/18 03:28:40;;;;;;;18.03;11.73;;;7.80;99.90;;;;;;4977816;28;20238;-82
2023/04/18 03:31:06;;;;;;;16.07;11.97;;;7.70;99.90;;;;;;4981512;28;20200;-83
2023/04/18 03:33:31;;;;;;;16.70;12.10;;;7.70;99.90;;;;;;4992960;28;20315;-82
2023/04/18 03:35:57;;;;;;;18.87;12.70;;;7.70;99.90;;;;;;4994276;28;20179;-83
2023/04/18 03:38:23;;;;;;;14.73;11.52;;;7.60;99.90;;;;;;4981802;28;20185;-84
2023/04/18 03:40:49;;;;;;;16.83;12.23;;;7.60;99.90;;;;;;4985318;28;20208;-83
2023/04/18 03:43:14;;;;;;;16.53;11.80;;;7.60;99.90;;;;;;4986115;28;20212;-84
2023/04/18 03:45:40;;;;;;;17.33;11.80;;;7.60;1.00;;;;;;4977102;28;20183;-83
2023/04/18 03:48:06;;;;;;;17.77;12.13;;;7.60;1.00;;;;;;4996319;28;20182;-84
2023/04/18 03:50:31;;;;;;;16.00;11.20;;;7.50;1.00;;;;;;4978448;28;20218;-85
2023/04/18 03:52:57;;;;;;;16.50;12.13;;;7.50;1.00;;;;;;4982880;28;20496;-83
2023/04/18 03:55:25;;;;;;;19.17;12.77;;;7.50;1.00;;;;;;4967266;28;20468;-84
2023/04/18 03:57:50;;;;;;;16.73;12.65;;;7.50;1.00;;;;;;4983549;28;20176;-82
2023/04/18 04:00:16;;;;;;;15.13;12.10;;;7.50;1.00;;;;;;4990663;28;20183;-81
2023/04/18 04:02:41;;;;;;;14.57;12.17;;;7.40;1.00;;;;;;4987740;28;20671;-81
2023/04/18 04:05:07;;;;;;;15.47;11.43;;;7.40;1.00;;;;;;4988468;28;20266;-84
2023/04/18 04:07:33;;;;;;;17.00;11.83;;;7.40;1.00;;;;;;4981733;28;20579;-82
2023/04/18 04:09:58;;;;;;;17.00;12.37;;;7.40;1.00;;;;;;4982448;28;20970;-83
2023/04/18 04:12:24;;;;;;;15.90;11.13;;;7.30;17.20;;;;;;4978970;28;20207;-83
2023/04/18 04:14:50;;;;;;;16.20;12.47;;;7.30;99.90;;;;;;4977181;28;20607;-83
2023/04/18 04:17:15;;;;;;;14.93;11.67;;;7.30;99.90;;;;;;4984520;28;20550;-83
2023/04/18 04:19:41;;;;;;;14.90;12.00;;;7.30;99.90;;;;;;4977782;28;20188;-83
2023/04/18 04:22:07;;;;;;;17.27;10.80;;;7.30;99.90;;;;;;4978747;28;20200;-83
2023/04/18 04:24:32;;;;;;;17.17;11.33;;;7.20;99.90;;;;;;4982179;28;20196;-85
2023/04/18 04:26:59;;;;;;;16.73;12.03;;;7.20;99.90;;;;;;4984151;28;20188;-83
2023/04/18 04:29:25;;;;;;;15.80;11.10;;;7.20;99.90;;;;;;4975576;28;20199;-81
2023/04/18 04:31:51;;;;;;;17.85;12.10;;;7.20;1.00;;;;;;4994817;28;20175;-85
2023/04/18 04:34:17;;;;;;;19.42;12.75;;;7.20;1.00;;;;;;4987899;28;20188;-81
2023/04/18 04:36:43;;;;;;;15.50;12.03;;;7.20;1.00;;;;;;4974729;28;20230;-81
2023/04/18 04:39:10;;;;;;;15.60;11.90;;;7.20;1.00;;;;;;4975473;28;20176;-83
2023/04/18 04:41:38;;;;;;;14.70;11.00;;;7.20;1.00;;;;;;4985017;28;20442;-82
2023/04/18 04:44:03;;;;;;;14.50;10.93;;;7.20;1.00;;;;;;4980159;28;20190;-83
2023/04/18 04:46:29;;;;;;;16.10;11.40;;;7.30;1.00;;;;;;4972380;28;20624;-82
2023/04/18 04:48:55;;;;;;;15.50;12.32;;;7.30;1.00;;;;;;4977648;28;20176;-83
2023/04/18 04:51:21;;;;;;;16.50;12.40;;;7.30;1.00;;;;;;4969925;28;20187;-83
2023/04/18 04:53:47;;;;;;;15.83;12.93;;;7.30;1.00;;;;;;4973081;28;20467;-83
2023/04/18 04:56:12;;;;;;;15.17;11.50;;;7.30;1.00;;;;;;4975843;28;20191;-84
2023/04/18 04:58:38;;;;;;;16.30;11.60;;;7.30;1.00;;;;;;4968678;28;20176;-82
2023/04/18 05:01:06;;;;;;;18.07;12.33;;;7.40;1.00;;;;;;4975809;28;20418;-83
2023/04/18 05:03:32;;;;;;;17.80;11.15;;;7.40;1.00;;;;;;4975759;28;20212;-80
2023/04/18 05:05:57;;;;;;;13.03;11.10;;;7.50;1.00;;;;;;4979102;28;20247;-83
2023/04/18 05:08:23;;;;;;;15.73;12.13;;;7.50;1.00;;;;;;4970176;28;20184;-81
2023/04/18 05:10:49;;;;;;;17.30;12.77;;;7.60;99.90;;;;;;4975433;28;20173;-82
2023/04/18 05:13:15;;;;;;;12.48;10.20;;;7.70;99.90;;;;;;4975068;28;20204;-81
2023/04/18 05:15:40;;;;;;;16.83;10.60;;;7.80;99.90;;;;;;4984715;28;20202;-81
2023/04/18 05:18:06;;;;;;;14.10;11.07;;;7.80;99.90;;;;;;4983286;28;20179;-82
2023/04/18 05:20:32;;;;;;;15.40;11.80;;;8.00;99.90;;;;;;4984365;28;20211;-83
2023/04/18 05:22:57;;;;;;;14.60;11.97;;;8.00;96.50;;;;;;4973676;28;20586;-81
2023/04/18 05:25:23;;;;;;;13.77;11.73;;;8.10;1.00;;;;;;4977358;28;20267;-82
2023/04/18 05:27:49;;;;;;;13.83;11.30;;;8.00;1.00;;;;;;4981429;28;20204;-82
2023/04/18 05:30:15;;;;;;;17.48;11.85;;;8.10;1.00;;;;;;4982836;28;20198;-83
2023/04/18 05:32:41;;;;;;;20.27;11.70;;;8.10;1.00;;;;;;4975209;28;20212;-83
2023/04/18 05:35:07;;;;;;;15.47;12.00;;;8.20;1.00;;;;;;4991203;28;20175;-83
2023/04/18 05:37:32;;;;;;;16.33;11.85;;;8.10;1.00;;;;;;4982827;28;20199;-83
2023/04/18 05:40:00;;;;;;;15.17;12.13;;;8.10;1.00;;;;;;4973491;28;20543;-83
2023/04/18 05:42:26;;;;;;;22.92;14.57;;;8.10;1.00;;;;;;4977034;28;20204;-82
2023/04/18 05:44:51;;;;;;;15.40;12.70;;;8.10;99.90;;;;;;4971120;28;20520;-80
2023/04/18 05:47:17;;;;;;;15.83;12.50;;;8.10;99.90;;;;;;4975458;28;20196;-82
2023/04/18 05:49:42;;;;;;;17.73;13.83;;;8.00;99.90;;;;;;4982978;28;20196;-82
2023/04/18 05:52:08;;;;;;;18.07;13.10;;;8.00;99.90;;;;;;4971841;28;20609;-83
2023/04/18 05:54:34;;;;;;;18.33;10.97;;;8.00;99.90;;;;;;4971029;28;20232;-84
2023/04/18 05:56:59;;;;;;;17.90;12.80;;;8.10;1.00;;;;;;4972403;28;20177;-82
2023/04/18 05:59:28;;;;;;;16.20;12.23;;;8.10;1.00;;;;;;4975843;28;20199;-83
2023/04/18 06:01:54;;;;;;;23.60;13.45;;;8.20;1.00;;;;;;4974820;28;20184;-80
2023/04/18 06:04:19;;;;;;;17.23;13.13;;;8.20;1.00;;;;;;4985010;28;20182;-81
2023/04/18 06:06:51;;;;;;;20.00;12.50;;;8.30;1.00;;;;;;4981166;28;20182;-81
2023/04/18 06:09:16;;;;;;;16.30;13.68;;;8.40;1.00;;;;;;4980405;28;20191;-82
2023/04/18 06:11:42;;;;;;;20.17;13.67;;;8.50;1.00;;;;;;4981085;28;20173;-81
2023/04/18 06:14:07;;;;;;;16.60;13.20;;;8.50;1.00;;;;;;4964768;28;20211;-80
2023/04/18 06:16:35;;;;;;;18.60;14.93;;;8.60;1.00;;;;;;4971091;28;20195;-81
2023/04/18 06:19:02;;;;;;;19.90;12.90;;;8.60;1.00;;;;;;4979621;28;20256;-81
2023/04/18 06:21:27;;;;;;;19.25;13.32;;;8.70;1.00;;;;;;4980006;28;20176;-83
2023/04/18 06:23:53;;;;;;;19.83;14.50;;;8.80;1.00;;;;;;4988165;28;20698;-81
2023/04/18 06:26:18;;;;;;;22.53;13.60;;;8.90;99.90;;;;;;5000515;28;20187;-81
2023/04/18 06:28:44;;;;;;;16.70;13.73;;;8.90;99.90;;;;;;4995066;28;20180;-83
2023/04/18 06:31:10;;;;;;;16.90;13.83;;;9.00;99.90;;;;;;4982424;28;20212;-81
2023/04/18 06:33:36;;;;;;;20.30;15.20;;;9.10;99.90;;;;;;4981270;28;20215;-81
2023/04/18 06:36:03;;;;;;;17.83;12.90;;;9.20;99.90;;;;;;4983592;28;20183;-82
2023/04/18 06:38:29;;;;;;;20.03;13.80;;;9.30;99.90;;;;;;4995239;28;20435;-81
2023/04/18 06:40:54;;;;;;;20.43;14.30;;;9.40;99.90;;;;;;4987154;28;20459;-81
2023/04/18 06:43:20;;;;;;;16.30;13.93;;;9.60;99.90;;;;;;4991295;28;20215;-81
2023/04/18 06:45:46;;;;;;;16.77;13.43;;;9.70;3.80;;;;;;4989953;28;20188;-80
2023/04/18 06:48:12;;;;;;;18.50;14.57;;;9.80;1.00;;;;;;4996481;28;20658;-82
2023/04/18 06:50:37;;;;;;;18.50;15.00;;;9.90;1.00;;;;;;5004554;28;20570;-82
2023/04/18 06:53:03;;;;;;;18.30;14.10;;;9.90;1.00;;;;;;4993600;28;20215;-82
2023/04/18 06:55:31;;;;;;;17.13;14.00;;;10.00;1.00;;;;;;4997788;28;20199;-81
2023/04/18 06:57:59;;;;;;;18.17;14.80;;;10.20;99.90;;;;;;4996165;28;20187;-82
2023/04/18 07:00:24;;;;;;;19.90;14.67;;;10.40;99.90;;;;;;4983797;28;20435;-81
2023/04/18 07:02:50;;;;;;;18.90;14.43;;;10.70;99.90;;;;;;4997546;28;20572;-81
2023/04/18 07:05:16;;;;;;;20.40;14.67;;;10.90;97.10;;;;;;4992422;28;20260;-82
2023/04/18 07:10:20;;;;;;;17.73;14.40;;;11.40;1.00;;;;;;5076907;27;20535;-79
2023/04/18 07:12:46;;;;;;;16.77;14.90;;;11.70;1.00;;;;;;5069170;28;20877;-82
2023/04/18 07:15:12;;;;;;;17.33;14.40;;;12.10;1.00;;;;;;5073211;28;20455;-83
2023/04/18 07:17:38;;;;;;;17.13;14.10;;;12.60;1.00;;;;;;5071829;28;20425;-81
2023/04/18 07:20:04;;;;;;;17.73;14.33;;;13.30;99.90;;;;;;5072049;28;20782;-80
2023/04/18 07:22:29;;;;;;;17.60;13.53;;;14.30;99.90;;;;;;5071605;28;20289;-82
2023/04/18 07:24:55;;;;;;;15.80;13.10;;;16.10;99.90;;;;;;5073697;28;20485;-83
2023/04/18 07:27:20;;;;;;;15.40;12.07;;;19.50;99.90;;;;;;5065791;28;20190;-81
2023/04/18 07:29:46;;;;;;;15.77;12.43;;;23.30;99.90;;;;;;5086910;28;20216;-83
2023/04/18 07:32:11;;;;;;;14.30;11.73;;;27.50;99.90;;;;;;5076308;28;20205;-83
2023/04/18 07:34:39;;;;;;;12.80;11.60;;;30.70;99.90;;;;;;5077678;28;20185;-84
2023/04/18 07:37:04;;;;;;;12.10;10.90;;;32.90;99.90;;;;;;5082515;28;20239;-83
2023/04/18 07:39:34;;;;;;;16.70;11.60;;;34.70;99.90;;;;;;5093563;28;20818;-84
2023/04/18 07:42:01;;;;;;;15.90;12.20;;;35.90;99.90;;;;;;5088099;28;20307;-85
2023/04/18 07:44:26;;;;;;;10.60;9.47;;;36.90;99.90;;;;;;5081858;28;20447;-83
2023/04/18 07:46:52;;;;;;;10.13;9.10;;;37.40;99.90;;;;;;5080167;28;20446;-85
2023/04/18 07:49:17;;;;;;;11.43;9.67;;;37.90;99.90;;;;;;5089625;28;20276;-83
2023/04/18 07:51:43;;;;;;;10.27;8.90;;;38.40;99.90;;;;;;5079826;28;20188;-82
2023/04/18 07:54:10;;;;;;;13.20;9.83;;;38.80;99.90;;;;;;5065327;28;20308;-82
2023/04/18 07:56:35;;;;;;;10.20;9.30;;;39.00;99.90;;;;;;5073807;28;20192;-83
2023/04/18 07:59:01;;;;;;;10.60;9.00;;;38.60;99.90;;;;;;5081081;28;20466;-83
2023/04/18 08:01:26;;;;;;;10.13;9.23;;;38.80;99.90;;;;;;5076114;28;20216;-83
2023/04/18 08:03:53;;;;;;;9.57;8.77;;;38.70;99.90;;;;;;5080595;28;20721;-81
2023/04/18 08:06:20;;;;;;;9.70;8.63;;;38.80;99.90;;;;;;5071829;28;20689;-82
2023/04/18 08:08:46;;;;;;;9.10;8.30;;;39.30;99.90;;;;;;5093746;28;20447;-83
2023/04/18 08:11:11;;;;;;;11.67;8.20;;;39.90;99.90;;;;;;5075213;28;20471;-82
2023/04/18 08:13:37;;;;;;;8.13;7.30;;;40.30;99.90;;;;;;5077700;28;20200;-82
2023/04/18 08:16:02;;;;;;;8.37;7.53;;;40.40;99.90;;;;;;5072126;28;20207;-84
2023/04/18 08:18:28;;;;;;;8.20;7.50;;;39.00;99.90;;;;;;5071966;28;20228;-84
2023/04/18 08:20:54;;;;;;;8.33;7.10;;;39.80;99.90;;;;;;5071881;28;20647;-84
2023/04/18 08:23:20;;;;;;;13.33;7.07;;;39.70;99.90;;;;;;5076837;28;20724;-84
2023/04/18 08:25:46;;;;;;;9.67;6.83;;;39.80;99.90;;;;;;5063458;28;20191;-83
2023/04/18 08:28:12;;;;;;;8.43;7.47;;;38.30;99.90;;;;;;5065251;28;20506;-81
2023/04/18 08:30:37;;;;;;;8.20;6.60;;;37.30;99.90;;;;;;5061985;28;20561;-82
2023/04/18 08:33:03;;;;;;;6.67;6.00;;;34.90;99.90;;;;;;5055993;28;20471;-82
2023/04/18 08:35:29;;;;;;;13.23;6.87;;;33.40;98.70;;;;;;5048880;28;20204;-83
2023/04/18 08:37:54;;;;;;;8.00;6.10;;;34.20;99.90;;;;;;5057461;28;20190;-83
2023/04/18 08:40:20;;;;;;;8.67;7.00;;;33.60;97.70;;;;;;5056374;28;20211;-82
2023/04/18 08:42:50;;;;;;;10.80;6.00;;;34.20;99.60;;;;;;5058089;28;20227;-83
2023/04/18 08:45:18;;;;;;;8.90;5.90;;;34.30;99.50;;;;;;5055976;28;20201;-82
2023/04/18 08:47:43;;;;;;;7.27;6.30;;;31.70;93.50;;;;;;5061273;28;20438;-82
2023/04/18 08:50:09;;;;;;;8.40;6.37;;;32.50;95.80;;;;;;5069699;28;20471;-83
2023/04/18 08:52:38;;;;;;;9.97;7.13;;;33.70;98.00;;;;;;5055831;28;20217;-82
2023/04/18 08:55:04;;;;;;;6.20;5.50;;;34.90;99.80;;;;;;5066680;28;20471;-83
2023/04/18 08:57:30;;;;;;;8.80;6.90;;;34.50;97.40;;;;;;5057113;28;21002;-81
2023/04/18 09:00:07;;;;;;;8.50;6.10;;;31.40;91.50;;;;;;5064845;28;20471;-83
2023/04/18 09:02:42;;;;;;;8.90;6.33;;;28.70;83.20;;;;;;5057687;28;20511;-82
2023/04/18 09:05:11;;;;;;;12.77;7.10;;;27.00;79.80;;;;;;5058736;28;20972;-81
2023/04/18 09:07:36;;;;;;;8.93;6.73;;;27.10;83.50;;;;;;5060115;28;20435;-81
2023/04/18 09:10:02;;;;;;;10.00;6.93;;;26.50;80.70;;;;;;5066469;28;20477;-82
2023/04/18 09:12:28;;;;;;;9.27;7.00;;;26.10;80.40;;;;;;5062340;28;20206;-82
2023/04/18 09:15:09;;;;;;;11.40;6.80;;;28.30;91.80;;;;;;5058880;28;20433;-81
2023/04/18 09:17:37;;;;;;;7.50;6.80;;;30.20;95.90;;;;;;5056171;28;20467;-84
2023/04/18 09:20:04;;;;;;;9.20;6.97;;;31.50;98.10;;;;;;5053867;28;20535;-83
2023/04/18 09:22:51;;;;;;;8.13;7.13;;;29.10;92.30;;;;;;5056076;28;20463;-82
2023/04/18 09:25:28;;;;;;;8.00;7.30;;;27.70;90.40;;;;;;5054919;28;20431;-83
2023/04/18 09:27:59;;;;;;;9.40;8.53;;;25.70;81.30;;;;;;5063563;28;20498;-84
2023/04/18 09:30:36;;;;;;;10.60;8.20;;;23.60;72.10;;;;;;5052893;28;20449;-83
2023/04/18 09:33:04;;;;;;;9.97;8.97;;;21.80;65.30;;;;;;5052968;28;20499;-81
2023/04/18 09:35:30;;;;;;;9.70;8.10;;;20.60;61.30;;;;;;5069133;28;20948;-83
2023/04/18 09:37:55;;;;;;;9.93;8.73;;;19.50;59.70;;;;;;5067301;28;20442;-83
2023/04/18 09:40:22;;;;;;;10.00;8.27;;;18.80;58.70;;;;;;5061507;28;20452;-84
2023/04/18 09:42:51;;;;;;;9.50;8.60;;;18.30;59.10;;;;;;5051758;28;20207;-84
2023/04/18 09:45:16;;;;;;;9.67;8.73;;;18.00;61.60;;;;;;5059180;28;20463;-83
2023/04/18 09:47:42;;;;;;;9.20;8.10;;;17.60;64.00;;;;;;5063060;28;20865;-83
2023/04/18 09:50:09;;;;;;;10.73;9.03;;;17.40;64.20;;;;;;5061840;28;20248;-83
2023/04/18 09:52:37;;;;;;;10.90;9.07;;;16.80;65.00;;;;;;5052437;28;20212;-84
2023/04/18 09:55:08;;;;;;;11.10;9.13;;;16.60;65.40;;;;;;5057815;28;20499;-82
2023/04/18 09:57:35;;;;;;;11.47;8.90;;;16.50;70.40;;;;;;5053695;28;20555;-83
2023/04/18 10:00:24;;;;;;;12.23;10.10;;;16.50;73.00;;;;;;5071920;28;20517;-82
2023/04/18 10:03:08;;;;;;;12.00;7.90;;;16.50;75.90;;;;;;5062276;28;20453;-82
2023/04/18 10:05:35;;;;;;;12.57;8.57;;;16.50;80.00;;;;;;5063457;28;20561;-83
2023/04/18 10:08:02;;;;;;;9.73;8.57;;;16.40;79.60;;;;;;5061737;28;20460;-83
2023/04/18 10:10:28;;;;;;;10.73;9.63;;;16.40;83.00;;;;;;5065031;28;20563;-83
2023/04/18 10:12:56;;;;;;;10.47;9.40;;;16.50;85.40;;;;;;5063363;28;20464;-82
2023/04/18 10:15:27;;;;;;;10.80;9.37;;;16.60;88.80;;;;;;5055124;28;20466;-82
2023/04/18 10:17:56;;;;;;;11.57;8.50;;;16.70;91.00;;;;;;5063432;28;20431;-82
2023/04/18 10:20:26;;;;;;;9.93;8.90;;;16.60;91.80;;;;;;5065127;28;20433;-83
2023/04/18 10:22:52;;;;;;;11.37;9.50;;;16.50;92.40;;;;;;5061145;28;20444;-82
2023/04/18 10:25:47;;;;;;;17.97;10.40;;;16.20;92.80;;;;;;5072250;28;20480;-80
2023/04/18 10:28:13;;;;;;;12.90;9.90;;;16.10;94.20;;;;;;5057361;28;20465;-80
2023/04/18 10:30:39;;;;;;;11.67;10.47;;;16.30;95.80;;;;;;5066739;28;20459;-82
2023/04/18 10:33:25;;;;;;;14.30;10.47;;;16.60;97.60;;;;;;5060986;28;20465;-83
2023/04/18 10:35:57;;;;;;;15.70;10.40;;;17.10;99.20;;;;;;5053044;28;20193;-82
2023/04/18 10:38:23;;;;;;;12.87;10.77;;;17.90;99.90;;;;;;5061919;28;20475;-82
2023/04/18 10:40:49;;;;;;;12.30;10.57;;;18.60;99.90;;;;;;5073851;28;20441;-83
2023/04/18 10:43:15;;;;;;;14.63;10.83;;;19.00;99.90;;;;;;5059699;28;20534;-82
2023/04/18 10:45:41;;;;;;;17.57;13.23;;;19.80;99.90;;;;;;5057907;28;20468;-82
2023/04/18 10:48:29;;;;;;;23.50;14.37;;;21.10;99.90;;;;;;5045518;28;20191;-83
2023/04/18 10:51:14;;;;;;;19.90;11.50;;;22.00;99.90;;;;;;5053490;28;20227;-81
2023/04/18 10:53:51;;;;;;;10.60;8.50;;;21.30;99.90;;;;;;5057810;28;20535;-81
2023/04/18 10:56:16;;;;;;;14.53;9.97;;;20.70;99.90;;;;;;5058149;28;20433;-83
2023/04/18 10:58:48;;;;;;;11.13;10.03;;;20.50;99.90;;;;;;5053245;28;20461;-83
2023/04/18 11:01:18;;;;;;;10.10;8.80;;;20.90;99.90;;;;;;5051814;28;20192;-83
2023/04/18 11:03:44;;;;;;;12.17;9.63;;;21.90;99.90;;;;;;5042099;28;20457;-83
2023/04/18 11:06:11;;;;;;;11.40;10.23;;;22.50;99.90;;;;;;5057146;28;20498;-83
2023/04/18 11:08:36;;;;;;;10.57;9.43;;;22.90;99.90;;;;;;5052536;28;20201;-84
2023/04/18 11:11:05;;;;;;;10.37;9.37;;;24.00;99.90;;;;;;5066140;28;20452;-83
2023/04/18 11:13:31;;;;;;;9.67;8.70;;;24.60;99.90;;;;;;5060868;28;20208;-83
2023/04/18 11:15:57;;;;;;;10.27;8.97;;;25.70;99.90;;;;;;5057104;28;20429;-83
2023/04/18 11:18:24;;;;;;;11.43;10.23;;;27.00;99.90;;;;;;5062973;28;20266;-84
2023/04/18 11:20:51;;;;;;;11.73;10.53;;;27.30;99.90;;;;;;5060199;28;20216;-82
2023/04/18 11:23:21;;;;;;;11.33;8.80;;;26.90;99.90;;;;;;5065239;28;20452;-83
2023/04/18 11:25:52;;;;;;;14.27;10.47;;;27.00;99.90;;;;;;5063265;28;20448;-83
2023/04/18 11:28:23;;;;;;;12.17;11.00;;;26.90;99.90;;;;;;5061294;28;20425;-84
2023/04/18 11:30:49;;;;;;;11.70;10.50;;;27.00;99.90;;;;;;5065511;28;20428;-84
2023/04/18 11:33:16;;;;;;;11.50;9.97;;;27.50;99.90;;;;;;5041032;28;20465;-82
2023/04/18 11:35:44;;;;;;;12.60;10.30;;;27.20;99.90;;;;;;5079216;28;20502;-82
2023/04/18 11:38:15;;;;;;;12.90;11.60;;;26.80;99.90;;;;;;5058763;28;20478;-82
2023/04/18 11:41:07;;;;;;;16.23;10.77;;;26.10;99.90;;;;;;5054796;28;21033;-83
2023/04/18 11:43:33;;;;;;;12.03;10.90;;;26.20;99.90;;;;;;5066226;28;20484;-84
2023/04/18 11:45:59;;;;;;;11.73;10.57;;;25.70;99.90;;;;;;5065407;28;20436;-82
2023/04/18 11:48:38;;;;;;;13.40;11.33;;;25.00;99.90;;;;;;5060267;28;20193;-82
2023/04/18 11:51:50;;;;;;;14.27;11.37;;;24.30;99.90;;;;;;5055180;28;20431;-82
2023/04/18 11:54:57;;;;;;;12.27;10.97;;;24.40;99.90;;;;;;5066588;28;20424;-83
2023/04/18 11:58:13;;;;;;;13.50;12.10;;;24.70;99.90;;;;;;5059861;28;20443;-81
2023/04/18 12:00:51;;;;;;;12.13;10.93;;;25.10;99.90;;;;;;5066771;28;20440;-83
2023/04/18 12:03:17;;;;;;;12.07;10.87;;;24.50;99.90;;;;;;5070068;28;20454;-85
2023/04/18 12:05:44;;;;;;;11.43;10.30;;;23.80;99.90;;;;;;5059084;28;20958;-83
2023/04/18 12:08:30;;;;;;;12.48;11.18;;;23.10;99.90;;;;;;5061846;28;20450;-83
2023/04/18 12:10:56;;;;;;;12.50;11.20;;;22.50;99.90;;;;;;5061728;28;20199;-83
2023/04/18 12:13:30;;;;;;;13.27;11.97;;;21.90;99.90;;;;;;5067407;28;20458;-83
2023/04/18 12:15:56;;;;;;;13.20;11.57;;;21.70;99.90;;;;;;5076812;28;20277;-83
2023/04/18 12:18:35;;;;;;;13.10;11.70;;;21.80;99.90;;;;;;5068656;28;20467;-83
2023/04/18 12:21:04;;;;;;;15.60;11.83;;;22.20;99.90;;;;;;5086701;28;20519;-84
2023/04/18 12:23:41;;;;;;;14.10;11.27;;;22.50;99.90;;;;;;5071923;28;20207;-84
2023/04/18 12:26:17;;;;;;;13.93;11.73;;;22.60;99.90;;;;;;5066274;28;20503;-84
2023/04/18 12:28:50;;;;;;;17.53;14.10;;;22.60;99.90;;;;;;5066904;28;20520;-83
2023/04/18 12:31:16;;;;;;;13.50;12.10;;;22.50;99.90;;;;;;5067769;28;20452;-83
2023/04/18 12:33:41;;;;;;;13.70;12.40;;;23.10;99.90;;;;;;5065602;28;21048;-84
2023/04/18 12:36:08;;;;;;;12.43;11.23;;;23.70;99.90;;;;;;5068995;28;20485;-85
2023/04/18 12:38:34;;;;;;;12.33;11.07;;;23.90;99.90;;;;;;5073187;28;20204;-82
2023/04/18 12:41:00;;;;;;;15.90;11.00;;;24.40;99.90;;;;;;5067873;28;20443;-84
2023/04/18 12:43:25;;;;;;;12.87;11.67;;;24.90;99.90;;;;;;5065389;28;20209;-85